createdAt,value
2022-09-20T00:01:28.430Z,65.22
2022-09-20T00:03:57.994Z,65.56
2022-09-20T00:06:27.787Z,65.58
2022-09-20T00:08:55.795Z,65.81
2022-09-20T00:11:25.148Z,66.45
2022-09-20T00:13:57.583Z,65.69
2022-09-20T00:16:29.633Z,65.88
2022-09-20T00:18:58.132Z,66.30
2022-09-20T00:21:30.853Z,66.15
2022-09-20T00:23:58.814Z,66.43
2022-09-20T00:26:29.694Z,66.47
2022-09-20T00:28:58.393Z,66.48
2022-09-20T00:31:25.373Z,66.09
2022-09-20T00:33:56.302Z,66.09
2022-09-20T00:36:23.512Z,66.01
2022-09-20T00:38:55.887Z,65.98
2022-09-20T00:41:22.860Z,65.59
2022-09-20T00:43:52.927Z,65.87
2022-09-20T00:46:48.770Z,66.26
2022-09-20T00:49:27.765Z,66.17
2022-09-20T00:52:00.946Z,66.06
2022-09-20T00:54:31.304Z,66.40
2022-09-20T00:56:58.128Z,66.24
2022-09-20T00:59:33.087Z,66.67
2022-09-20T01:02:14.829Z,66.10
2022-09-20T01:04:43.124Z,65.77
2022-09-20T01:07:13.832Z,65.75
2022-09-20T01:09:40.787Z,65.74
2022-09-20T01:12:16.281Z,65.43
2022-09-20T01:14:47.331Z,65.70
2022-09-20T01:17:16.043Z,65.29
2022-09-20T01:20:02.785Z,65.25
2022-09-20T01:22:41.450Z,64.98
2022-09-20T01:25:49.602Z,64.49
2022-09-20T01:28:17.157Z,65.24
2022-09-20T01:31:04.736Z,65.56
2022-09-20T01:33:44.822Z,65.08
2022-09-20T01:36:18.662Z,65.17
2022-09-20T01:38:48.655Z,65.09
2022-09-20T01:41:25.042Z,65.01
2022-09-20T01:44:30.964Z,65.13
2022-09-20T01:47:11.048Z,65.19
2022-09-20T01:49:43.739Z,65.65
2022-09-20T01:52:19.307Z,66.01
2022-09-20T01:54:55.041Z,65.64
2022-09-20T01:57:40.340Z,65.58
2022-09-20T02:00:14.233Z,66.08
2022-09-20T02:03:08.830Z,66.32
2022-09-20T02:05:47.693Z,66.09
2022-09-20T02:08:26.272Z,66.52
2022-09-20T02:11:09.058Z,66.12
2022-09-20T02:13:51.991Z,66.61
2022-09-20T02:16:52.858Z,66.85
2022-09-20T02:20:01.491Z,66.14
2022-09-20T02:23:09.356Z,66.32
2022-09-20T02:25:44.911Z,66.57
2022-09-20T02:28:29.661Z,67.38
2022-09-20T02:31:14.849Z,66.54
2022-09-20T02:34:20.904Z,66.95
2022-09-20T02:37:15.431Z,66.94
2022-09-20T02:40:00.560Z,67.01
2022-09-20T02:42:35.974Z,66.71
2022-09-20T02:45:27.689Z,67.11
2022-09-20T02:48:00.670Z,67.01
2022-09-20T02:50:55.428Z,67.49
2022-09-20T02:53:31.168Z,67.22
2022-09-20T02:56:42.364Z,67.01
2022-09-20T02:59:40.091Z,66.55
2022-09-20T03:02:26.012Z,66.71
2022-09-20T03:05:12.104Z,66.29
2022-09-20T03:08:03.280Z,64.37
2022-09-20T03:10:38.531Z,62.51
2022-09-20T03:13:34.278Z,60.81
2022-09-20T03:16:49.899Z,60.08
2022-09-20T03:19:36.662Z,59.59
2022-09-20T03:22:31.440Z,60.03
2022-09-20T03:25:22.507Z,60.13
2022-09-20T03:28:08.876Z,58.40
2022-09-20T03:30:41.755Z,57.83
2022-09-20T03:33:31.743Z,58.87
2022-09-20T03:36:25.993Z,60.31
2022-09-20T03:39:11.242Z,61.33
2022-09-20T03:41:57.810Z,62.16
2022-09-20T03:44:45.907Z,62.96
2022-09-20T03:47:26.632Z,62.98
2022-09-20T03:50:18.996Z,61.36
2022-09-20T03:53:17.930Z,59.54
2022-09-20T03:56:11.597Z,58.48
2022-09-20T03:58:56.986Z,57.88
2022-09-20T04:01:35.689Z,57.67
2022-09-20T04:04:27.217Z,57.31
2022-09-20T04:07:11.596Z,57.00
2022-09-20T04:09:56.129Z,56.68
2022-09-20T04:12:41.645Z,57.90
2022-09-20T04:15:37.376Z,58.00
2022-09-20T04:18:37.142Z,57.91
2022-09-20T04:21:18.614Z,58.28
2022-09-20T04:24:10.183Z,58.21
2022-09-20T04:26:44.184Z,58.08
2022-09-20T04:29:11.022Z,58.83
2022-09-20T04:31:52.065Z,58.92
2022-09-20T04:34:31.581Z,59.15
2022-09-20T04:37:02.723Z,59.34
2022-09-20T04:39:57.153Z,59.31
2022-09-20T04:42:51.063Z,59.35
2022-09-20T04:45:33.114Z,59.86
2022-09-20T04:48:26.743Z,59.93
2022-09-20T04:51:21.175Z,59.87
2022-09-20T04:53:53.834Z,60.49
2022-09-20T04:56:26.488Z,59.72
2022-09-20T04:59:06.689Z,60.20
2022-09-20T05:02:21.789Z,60.37
2022-09-20T05:05:13.172Z,61.05
2022-09-20T05:08:04.531Z,60.37
2022-09-20T05:10:52.598Z,60.71
2022-09-20T05:13:36.454Z,60.65
2022-09-20T05:16:21.491Z,61.27
2022-09-20T05:19:29.861Z,60.87
2022-09-20T05:22:17.608Z,60.59
2022-09-20T05:25:05.557Z,60.75
2022-09-20T05:27:43.646Z,60.55
2022-09-20T05:30:22.773Z,60.85
2022-09-20T05:32:58.667Z,60.21
2022-09-20T05:35:49.810Z,59.78
2022-09-20T05:38:54.403Z,59.26
2022-09-20T05:41:40.502Z,58.71
2022-09-20T05:44:29.025Z,58.86
2022-09-20T05:47:29.497Z,57.85
2022-09-20T05:50:30.122Z,57.43
2022-09-20T05:53:37.996Z,56.61
2022-09-20T05:56:49.651Z,56.54
2022-09-20T05:59:32.154Z,56.21
2022-09-20T06:02:23.813Z,56.25
2022-09-20T06:05:03.378Z,55.14
2022-09-20T06:07:42.163Z,55.55
2022-09-20T06:10:33.380Z,55.57
2022-09-20T06:13:38.378Z,54.86
2022-09-20T06:16:07.707Z,54.34
2022-09-20T06:18:59.591Z,53.75
2022-09-20T06:21:41.631Z,53.64
2022-09-20T06:24:35.580Z,53.56
2022-09-20T06:27:11.020Z,53.69
2022-09-20T06:29:42.780Z,53.19
2022-09-20T06:32:33.088Z,52.59
2022-09-20T06:35:02.283Z,51.74
2022-09-20T06:37:32.041Z,51.17
2022-09-20T06:40:46.593Z,51.25
2022-09-20T06:43:13.447Z,50.43
2022-09-20T06:45:41.331Z,49.70
2022-09-20T06:48:19.620Z,50.17
2022-09-20T06:50:46.446Z,49.25
2022-09-20T06:53:16.874Z,49.46
2022-09-20T06:55:45.070Z,48.64
2022-09-20T06:58:12.059Z,48.26
2022-09-20T07:00:38.891Z,47.87
2022-09-20T07:03:06.282Z,47.23
2022-09-20T07:05:33.204Z,47.40
2022-09-20T07:08:00.517Z,46.88
2022-09-20T07:10:28.479Z,45.79
2022-09-20T07:13:00.243Z,45.99
2022-09-20T07:15:32.817Z,44.71
2022-09-20T07:17:59.968Z,45.12
2022-09-20T07:20:27.210Z,46.05
2022-09-20T07:22:54.118Z,44.54
2022-09-20T07:25:21.548Z,45.68
2022-09-20T07:27:51.711Z,44.81
2022-09-20T07:30:24.508Z,43.83
2022-09-20T07:32:51.324Z,43.28
2022-09-20T07:35:18.205Z,44.00
2022-09-20T07:37:45.134Z,42.86
2022-09-20T07:40:11.976Z,42.73
2022-09-20T07:42:38.945Z,42.34
2022-09-20T07:45:06.395Z,42.51
2022-09-20T07:47:33.238Z,43.35
2022-09-20T07:49:59.975Z,42.73
2022-09-20T07:52:26.808Z,42.19
2022-09-20T07:54:53.562Z,41.85
2022-09-20T07:57:38.502Z,42.06
2022-09-20T08:00:08.684Z,41.41
2022-09-20T08:02:39.502Z,41.77
2022-09-20T08:05:07.048Z,41.84
2022-09-20T08:07:33.924Z,42.06
2022-09-20T08:10:00.831Z,41.43
2022-09-20T08:15:33.089Z,40.39
2022-09-20T08:17:59.875Z,40.91
2022-09-20T08:20:26.642Z,40.57
2022-09-20T08:23:19.462Z,40.10
2022-09-20T08:25:40.326Z,39.53
2022-09-20T08:28:07.122Z,37.96
2022-09-20T08:30:34.003Z,39.04
2022-09-20T08:33:03.218Z,38.73
2022-09-20T08:35:30.116Z,38.46
2022-09-20T08:37:56.990Z,37.67
2022-09-20T08:40:25.439Z,38.02
2022-09-20T08:42:53.461Z,39.47
2022-09-20T08:45:40.681Z,39.66
2022-09-20T08:48:16.416Z,39.41
2022-09-20T08:50:43.264Z,38.55
2022-09-20T08:53:13.678Z,38.16
2022-09-20T08:55:41.258Z,36.41
2022-09-20T08:58:11.928Z,36.00
2022-09-20T09:00:46.776Z,36.81
2022-09-20T09:03:15.515Z,37.67
2022-09-20T09:05:51.254Z,37.80
2022-09-20T09:08:19.389Z,37.51
2022-09-20T09:10:51.810Z,36.40
2022-09-20T09:13:42.259Z,35.89
2022-09-20T09:16:22.618Z,35.13
2022-09-20T09:18:51.139Z,35.59
2022-09-20T09:21:22.092Z,35.98
2022-09-20T09:24:05.487Z,36.82
2022-09-20T09:26:38.262Z,35.83
2022-09-20T09:29:21.088Z,36.95
2022-09-20T09:31:53.283Z,36.26
2022-09-20T09:34:27.336Z,35.25
2022-09-20T09:36:55.129Z,35.96
2022-09-20T09:39:28.429Z,35.30
2022-09-20T09:41:56.395Z,35.13
2022-09-20T09:44:33.411Z,35.37
2022-09-20T09:47:01.122Z,37.18
2022-09-20T09:49:30.580Z,37.12
2022-09-20T09:52:14.559Z,37.28
2022-09-20T09:54:51.726Z,36.39
2022-09-20T09:57:44.197Z,35.73
2022-09-20T10:00:21.464Z,34.97
2022-09-20T10:03:16.259Z,34.64
2022-09-20T10:06:07.075Z,36.47
2022-09-20T10:08:54.603Z,36.53
2022-09-20T10:11:39.711Z,36.29
2022-09-20T10:14:18.592Z,36.87
2022-09-20T10:17:03.733Z,35.95
2022-09-20T10:19:45.676Z,35.02
2022-09-20T10:22:30.037Z,34.90
2022-09-20T10:25:24.095Z,36.11
2022-09-20T10:27:53.947Z,35.27
2022-09-20T10:31:00.510Z,35.63
2022-09-20T10:33:35.080Z,34.72
2022-09-20T10:36:09.846Z,33.80
2022-09-20T10:38:52.237Z,34.02
2022-09-20T10:41:44.075Z,33.09
2022-09-20T10:44:15.809Z,33.51
2022-09-20T10:47:23.002Z,33.55
2022-09-20T10:50:38.985Z,32.56
2022-09-20T10:53:14.779Z,31.87
2022-09-20T10:55:52.015Z,31.72
2022-09-20T10:58:48.029Z,33.37
2022-09-20T11:01:33.989Z,33.62
2022-09-20T11:04:19.368Z,33.61
2022-09-20T11:07:18.214Z,34.70
2022-09-20T11:09:52.169Z,34.17
2022-09-20T11:12:25.269Z,33.36
2022-09-20T11:15:30.408Z,33.63
2022-09-20T11:18:05.448Z,33.89
2022-09-20T11:21:06.628Z,33.48
2022-09-20T11:24:10.276Z,33.38
2022-09-20T11:26:51.789Z,34.02
2022-09-20T11:29:40.611Z,34.51
2022-09-20T11:32:30.538Z,33.56
2022-09-20T11:35:20.331Z,32.56
2022-09-20T11:38:02.739Z,32.33
2022-09-20T11:40:37.117Z,32.34
2022-09-20T11:43:08.329Z,32.41
2022-09-20T11:45:39.684Z,32.41
2022-09-20T11:48:28.732Z,31.79
2022-09-20T11:51:07.751Z,31.56
2022-09-20T11:53:37.649Z,31.02
2022-09-20T11:56:10.590Z,31.65
2022-09-20T11:58:52.104Z,31.89
2022-09-20T12:01:34.278Z,32.14
2022-09-20T12:07:26.562Z,31.37
2022-09-20T12:10:01.408Z,30.61
2022-09-20T12:12:47.078Z,30.74
2022-09-20T12:15:32.283Z,31.33
2022-09-20T12:17:59.068Z,30.76
2022-09-20T12:20:34.538Z,30.34
2022-09-20T12:23:38.673Z,29.87
2022-09-20T12:26:05.496Z,29.83
2022-09-20T12:28:43.426Z,29.85
2022-09-20T12:31:19.628Z,29.73
2022-09-20T12:34:03.238Z,30.02
2022-09-20T12:36:33.028Z,29.83
2022-09-20T12:39:11.971Z,30.66
2022-09-20T12:41:53.849Z,30.94
2022-09-20T12:44:23.661Z,31.86
2022-09-20T12:47:24.666Z,31.88
2022-09-20T12:49:54.163Z,32.37
2022-09-20T12:52:35.058Z,32.52
2022-09-20T12:55:08.987Z,31.99
2022-09-20T12:57:38.814Z,31.85
2022-09-20T13:00:08.049Z,31.96
2022-09-20T13:02:53.228Z,31.93
2022-09-20T13:05:37.535Z,31.64
2022-09-20T13:08:31.900Z,31.76
2022-09-20T13:11:08.711Z,32.34
2022-09-20T13:13:56.991Z,32.76
2022-09-20T13:16:36.083Z,33.03
2022-09-20T13:19:15.293Z,33.12
2022-09-20T13:21:54.363Z,32.70
2022-09-20T13:24:42.451Z,32.46
2022-09-20T13:27:19.395Z,33.76
2022-09-20T13:29:46.921Z,33.89
2022-09-20T13:32:16.795Z,33.56
2022-09-20T13:34:45.920Z,33.60
2022-09-20T13:37:19.648Z,33.82
2022-09-20T13:39:55.754Z,34.22
2022-09-20T13:42:23.154Z,33.26
2022-09-20T13:44:52.751Z,33.54
2022-09-20T13:47:27.744Z,33.14
2022-09-20T13:50:22.714Z,33.15
2022-09-20T13:53:00.715Z,33.62
2022-09-20T13:55:30.517Z,33.22
2022-09-20T13:58:01.757Z,33.36
2022-09-20T14:00:29.647Z,33.75
2022-09-20T14:02:58.421Z,34.26
2022-09-20T14:05:28.911Z,34.42
2022-09-20T14:08:00.576Z,34.09
2022-09-20T14:10:36.949Z,34.28
2022-09-20T14:13:14.009Z,34.66
2022-09-20T14:15:47.339Z,34.58
2022-09-20T14:18:21.060Z,35.42
2022-09-20T14:20:48.627Z,35.46
2022-09-20T14:23:39.876Z,35.24
2022-09-20T14:26:15.794Z,35.46
2022-09-20T14:28:43.635Z,35.83
2022-09-20T14:31:21.660Z,36.21
2022-09-20T14:33:55.071Z,36.23
2022-09-20T14:36:25.535Z,36.34
2022-09-20T14:38:55.500Z,36.34
2022-09-20T14:41:49.013Z,36.63
2022-09-20T14:44:30.136Z,36.87
2022-09-20T14:46:57.765Z,36.93
2022-09-20T14:49:24.596Z,37.36
2022-09-20T14:52:15.139Z,37.78
2022-09-20T14:54:42.027Z,38.30
2022-09-20T14:57:08.919Z,38.02
2022-09-20T14:59:38.304Z,38.41
2022-09-20T15:02:05.235Z,38.28
2022-09-20T15:04:33.292Z,38.80
2022-09-20T15:07:02.938Z,38.79
2022-09-20T15:09:30.342Z,38.95
2022-09-20T15:12:05.682Z,39.03
2022-09-20T15:14:37.416Z,38.80
2022-09-20T15:17:10.250Z,39.11
2022-09-20T15:19:37.104Z,38.74
2022-09-20T15:22:06.253Z,38.90
2022-09-20T15:24:33.553Z,38.62
2022-09-20T15:27:00.542Z,38.46
2022-09-20T15:29:27.420Z,38.18
2022-09-20T15:31:57.338Z,40.17
2022-09-20T15:34:24.366Z,39.47
2022-09-20T15:36:51.789Z,39.61
2022-09-20T15:39:18.756Z,41.12
2022-09-20T15:41:45.667Z,43.37
2022-09-20T15:44:15.981Z,43.88
2022-09-20T15:46:42.896Z,42.93
2022-09-20T15:49:12.030Z,42.01
2022-09-20T15:51:39.303Z,42.92
2022-09-20T15:54:07.394Z,42.58
2022-09-20T15:56:54.805Z,40.83
2022-09-20T15:59:21.828Z,41.76
2022-09-20T16:01:48.807Z,41.62
2022-09-20T16:04:19.042Z,40.78
2022-09-20T16:06:49.283Z,40.96
2022-09-20T16:09:16.552Z,41.32
2022-09-20T16:11:43.521Z,42.20
2022-09-20T16:14:11.038Z,40.44
2022-09-20T16:16:40.654Z,40.31
2022-09-20T16:19:10.668Z,40.40
2022-09-20T16:21:39.590Z,40.68
2022-09-20T16:24:07.529Z,39.96
2022-09-20T16:26:34.967Z,41.03
2022-09-20T16:29:02.154Z,40.51
2022-09-20T16:31:42.829Z,41.67
2022-09-20T16:34:26.599Z,40.46
2022-09-20T16:36:55.157Z,40.70
2022-09-20T16:39:22.825Z,41.74
2022-09-20T16:41:55.524Z,42.63
2022-09-20T16:44:22.410Z,41.08
2022-09-20T16:46:54.476Z,40.88
2022-09-20T16:49:22.243Z,42.57
2022-09-20T16:51:49.235Z,41.54
2022-09-20T16:54:17.292Z,42.08
2022-09-20T16:56:46.612Z,41.02
2022-09-20T16:59:15.334Z,41.11
2022-09-20T17:01:43.167Z,43.36
2022-09-20T17:04:11.608Z,44.61
2022-09-20T17:06:39.056Z,44.60
2022-09-20T17:09:07.336Z,44.27
2022-09-20T17:11:38.722Z,44.62
2022-09-20T17:14:06.640Z,43.57
2022-09-20T17:17:09.049Z,43.20
2022-09-20T17:19:38.311Z,42.40
2022-09-20T17:22:05.306Z,42.02
2022-09-20T17:24:32.466Z,42.52
2022-09-20T17:26:59.312Z,42.37
2022-09-20T17:29:26.627Z,42.40
2022-09-20T17:31:56.261Z,42.67
2022-09-20T17:34:25.251Z,42.87
2022-09-20T17:36:53.677Z,42.78
2022-09-20T17:39:20.855Z,43.17
2022-09-20T17:41:49.068Z,44.42
2022-09-20T17:44:16.707Z,44.83
2022-09-20T17:46:48.086Z,46.01
2022-09-20T17:49:23.219Z,46.37
2022-09-20T17:51:55.803Z,45.68
2022-09-20T17:54:24.092Z,45.74
2022-09-20T17:56:53.167Z,45.91
2022-09-20T17:59:20.798Z,45.35
2022-09-20T18:01:50.188Z,45.72
2022-09-20T18:04:18.045Z,46.09
2022-09-20T18:06:49.762Z,46.36
2022-09-20T18:09:19.772Z,46.97
2022-09-20T18:11:49.554Z,47.49
2022-09-20T18:14:42.474Z,47.29
2022-09-20T18:17:09.552Z,47.25
2022-09-20T18:19:36.366Z,47.83
2022-09-20T18:22:04.154Z,48.41
2022-09-20T18:24:31.708Z,48.50
2022-09-20T18:26:59.010Z,47.77
2022-09-20T18:29:25.927Z,48.19
2022-09-20T18:31:54.491Z,48.03
2022-09-20T18:34:23.993Z,48.40
2022-09-20T18:36:55.997Z,48.64
2022-09-20T18:39:33.559Z,48.02
2022-09-20T18:42:01.863Z,48.64
2022-09-20T18:44:28.810Z,48.42
2022-09-20T18:46:55.919Z,48.59
2022-09-20T18:49:22.901Z,48.19
2022-09-20T18:51:49.889Z,48.98
2022-09-20T18:54:18.007Z,48.89
2022-09-20T18:56:47.158Z,49.00
2022-09-20T18:59:19.364Z,49.10
2022-09-20T19:01:51.957Z,48.89
2022-09-20T19:04:56.589Z,48.58
2022-09-20T19:07:32.631Z,49.39
2022-09-20T19:10:05.707Z,49.73
2022-09-20T19:13:02.382Z,49.69
2022-09-20T19:15:41.514Z,49.55
2022-09-20T19:18:31.627Z,49.79
2022-09-20T19:21:19.988Z,50.26
2022-09-20T19:24:13.815Z,50.40
2022-09-20T19:26:41.067Z,50.78
2022-09-20T19:29:26.468Z,50.31
2022-09-20T19:31:56.783Z,50.78
2022-09-20T19:34:29.841Z,51.04
2022-09-20T19:37:05.884Z,50.17
2022-09-20T19:40:06.310Z,50.29
2022-09-20T19:42:45.581Z,50.83
2022-09-20T19:45:30.584Z,51.48
2022-09-20T19:48:16.681Z,51.33
2022-09-20T19:50:46.137Z,51.49
2022-09-20T19:53:15.066Z,51.63
2022-09-20T19:55:46.679Z,51.46
2022-09-20T19:58:14.998Z,51.46
2022-09-20T20:00:46.851Z,51.37
2022-09-20T20:03:15.423Z,51.14
2022-09-20T20:06:09.813Z,51.23
2022-09-20T20:08:55.139Z,51.25
2022-09-20T20:11:31.137Z,51.51
2022-09-20T20:14:07.121Z,51.69
2022-09-20T20:17:11.794Z,52.10
2022-09-20T20:19:45.115Z,52.14
2022-09-20T20:22:50.098Z,51.38
2022-09-20T20:25:44.088Z,51.84
2022-09-20T20:28:11.111Z,51.79
2022-09-20T20:30:37.913Z,52.33
2022-09-20T20:33:06.426Z,52.54
2022-09-20T20:35:33.263Z,52.74
2022-09-20T20:38:00.133Z,53.65
2022-09-20T20:40:26.951Z,53.04
2022-09-20T20:42:57.011Z,52.56
2022-09-20T20:45:26.968Z,54.39
2022-09-20T20:47:57.962Z,55.20
2022-09-20T20:50:26.361Z,54.78
2022-09-20T20:52:56.528Z,54.81
2022-09-20T20:55:24.197Z,55.61
2022-09-20T20:57:55.406Z,55.71
2022-09-20T21:00:22.194Z,56.08
2022-09-20T21:02:49.161Z,56.18
2022-09-20T21:05:16.067Z,56.08
2022-09-20T21:07:42.799Z,56.36
2022-09-20T21:10:09.899Z,58.09
2022-09-20T21:12:36.656Z,58.02
2022-09-20T21:15:03.841Z,56.92
2022-09-20T21:17:35.287Z,56.52
2022-09-20T21:20:03.634Z,56.97
2022-09-20T21:22:30.385Z,57.00
2022-09-20T21:24:57.353Z,56.89
2022-09-20T21:27:24.191Z,57.12
2022-09-20T21:29:56.660Z,57.07
2022-09-20T21:32:23.533Z,56.00
2022-09-20T21:34:50.374Z,57.16
2022-09-20T21:37:17.203Z,57.36
2022-09-20T21:39:43.964Z,56.05
2022-09-20T21:42:10.800Z,56.65
2022-09-20T21:44:37.597Z,56.85
2022-09-20T21:47:04.466Z,56.27
2022-09-20T21:49:31.208Z,56.72
2022-09-20T21:51:58.078Z,56.42
2022-09-20T21:54:24.787Z,55.83
2022-09-20T21:56:51.574Z,56.76
2022-09-20T21:59:18.490Z,56.69
2022-09-20T22:01:45.429Z,57.22
2022-09-20T22:04:12.659Z,57.00
2022-09-20T22:06:44.244Z,56.51
2022-09-20T22:09:16.477Z,56.57
2022-09-20T22:11:48.586Z,57.19
2022-09-20T22:14:17.412Z,57.06
2022-09-20T22:16:47.765Z,56.79
2022-09-20T22:19:16.882Z,56.94
2022-09-20T22:21:45.968Z,57.15
2022-09-20T22:24:14.645Z,56.25
2022-09-20T22:27:05.960Z,56.43
2022-09-20T22:29:32.906Z,56.49
2022-09-20T22:31:59.641Z,56.84
2022-09-20T22:34:26.440Z,56.12
2022-09-20T22:36:53.216Z,57.05
2022-09-20T22:39:20.120Z,56.43
2022-09-20T22:41:46.946Z,56.84
2022-09-20T22:44:14.346Z,56.49
2022-09-20T22:46:41.119Z,56.84
2022-09-20T22:49:09.129Z,56.13
2022-09-20T22:51:36.563Z,55.82
2022-09-20T22:54:09.209Z,56.23
2022-09-20T22:56:37.328Z,55.75
2022-09-20T22:59:10.275Z,55.65
2022-09-20T23:01:40.007Z,55.46
2022-09-20T23:04:10.102Z,55.53
2022-09-20T23:06:39.200Z,56.07
2022-09-20T23:09:12.837Z,55.87
2022-09-20T23:11:43.477Z,55.14
2022-09-20T23:14:16.130Z,55.16
2022-09-20T23:16:43.276Z,55.22
2022-09-20T23:19:11.298Z,55.21
2022-09-20T23:21:40.293Z,55.41
2022-09-20T23:24:09.638Z,55.71
2022-09-20T23:26:38.209Z,55.92
2022-09-20T23:29:08.323Z,55.77
2022-09-20T23:31:36.676Z,55.96
2022-09-20T23:34:06.415Z,55.84
2022-09-20T23:36:36.543Z,56.41
2022-09-20T23:39:03.424Z,56.02
2022-09-20T23:41:30.371Z,56.03
2022-09-20T23:43:57.554Z,56.06
2022-09-20T23:46:26.113Z,55.69
2022-09-20T23:48:52.968Z,56.18
2022-09-20T23:51:25.972Z,56.48
2022-09-20T23:53:53.492Z,56.60
2022-09-20T23:56:22.053Z,56.44
2022-09-20T23:58:49.551Z,56.62
